createdAt,value
2017-06-09T00:00:49.938Z,1003.87
2017-06-09T00:01:51.165Z,1003.83
2017-06-09T00:02:52.453Z,1003.84
2017-06-09T00:03:53.728Z,1003.79
2017-06-09T00:04:54.995Z,1003.76
2017-06-09T00:05:56.369Z,1003.76
2017-06-09T00:06:57.602Z,1003.77
2017-06-09T00:07:58.839Z,1003.77
2017-06-09T00:09:00.077Z,1003.8
2017-06-09T00:10:01.324Z,1003.78
2017-06-09T00:11:02.573Z,1003.79
2017-06-09T00:12:04.104Z,1003.8
2017-06-09T00:13:05.369Z,1003.79
2017-06-09T00:14:06.618Z,1003.82
2017-06-09T00:15:07.866Z,1003.81
2017-06-09T00:16:09.114Z,1003.78
2017-06-09T00:17:10.363Z,1003.76
2017-06-09T00:18:11.613Z,1003.71
2017-06-09T00:19:12.858Z,1003.74
2017-06-09T00:20:14.102Z,1003.72
2017-06-09T00:21:15.354Z,1003.71
2017-06-09T00:22:16.708Z,1003.7
2017-06-09T00:23:18.036Z,1003.68
2017-06-09T00:24:19.264Z,1003.67
2017-06-09T00:25:20.509Z,1003.69
2017-06-09T00:26:21.783Z,1003.71
2017-06-09T00:27:23.026Z,1003.67
2017-06-09T00:28:24.285Z,1003.64
2017-06-09T00:29:25.573Z,1003.61
2017-06-09T00:30:26.833Z,1003.59
2017-06-09T00:31:28.090Z,1003.57
2017-06-09T00:32:29.311Z,1003.57
2017-06-09T00:33:30.560Z,1003.61
2017-06-09T00:34:31.829Z,1003.59
2017-06-09T00:35:33.060Z,1003.64
2017-06-09T00:36:34.345Z,1003.67
2017-06-09T00:37:35.602Z,1003.67
2017-06-09T00:38:36.847Z,1003.72
2017-06-09T00:39:38.073Z,1003.71
2017-06-09T00:40:39.311Z,1003.7
2017-06-09T00:41:40.570Z,1003.71
2017-06-09T00:42:41.954Z,1003.69
2017-06-09T00:43:43.240Z,1003.67
2017-06-09T00:44:44.504Z,1003.68
2017-06-09T00:45:45.743Z,1003.65
2017-06-09T00:46:46.985Z,1003.65
2017-06-09T00:47:48.234Z,1003.63
2017-06-09T00:48:49.487Z,1003.61
2017-06-09T00:49:50.730Z,1003.62
2017-06-09T00:50:51.964Z,1003.65
2017-06-09T00:51:53.215Z,1003.6
2017-06-09T00:52:54.466Z,1003.57
2017-06-09T00:53:55.729Z,1003.61
2017-06-09T00:54:56.965Z,1003.56
2017-06-09T00:55:58.287Z,1003.57
2017-06-09T00:56:59.521Z,1003.56
2017-06-09T00:58:00.755Z,1003.53
2017-06-09T00:59:02.012Z,1003.48
2017-06-09T01:00:03.254Z,1003.4
2017-06-09T01:01:04.552Z,1003.42
2017-06-09T01:02:05.834Z,1003.41
2017-06-09T01:03:07.082Z,1003.4
2017-06-09T01:04:08.329Z,1003.44
2017-06-09T01:05:09.572Z,1003.5
2017-06-09T01:06:10.867Z,1003.57
2017-06-09T01:07:12.246Z,1003.66
2017-06-09T01:08:13.509Z,1003.7
2017-06-09T01:09:14.740Z,1003.72
2017-06-09T01:10:15.989Z,1003.77
2017-06-09T01:11:17.223Z,1003.8
2017-06-09T01:12:18.507Z,1003.8
2017-06-09T01:13:19.782Z,1003.84
2017-06-09T01:14:21.063Z,1003.83
2017-06-09T01:15:22.298Z,1003.88
2017-06-09T01:16:23.549Z,1003.88
2017-06-09T01:17:24.786Z,1003.87
2017-06-09T01:18:26.029Z,1003.94
2017-06-09T01:19:27.274Z,1003.94
2017-06-09T01:20:28.541Z,1003.95
2017-06-09T01:21:29.839Z,1003.96
2017-06-09T01:22:31.071Z,1003.89
2017-06-09T01:23:32.324Z,1003.9
2017-06-09T01:24:33.570Z,1003.82
2017-06-09T01:25:34.813Z,1003.79
2017-06-09T01:26:36.073Z,1003.74
2017-06-09T01:27:37.311Z,1003.71
2017-06-09T01:28:38.558Z,1003.69
2017-06-09T01:29:39.823Z,1003.71
2017-06-09T01:30:41.074Z,1003.69
2017-06-09T01:31:42.305Z,1003.67
2017-06-09T01:32:43.615Z,1003.64
2017-06-09T01:33:44.811Z,1003.66
2017-06-09T01:34:46.088Z,1003.6
2017-06-09T01:35:47.312Z,1003.58
2017-06-09T01:36:48.567Z,1003.6
2017-06-09T01:37:49.841Z,1003.62
2017-06-09T01:38:51.064Z,1003.64
2017-06-09T01:39:52.311Z,1003.65
2017-06-09T01:40:53.549Z,1003.64
2017-06-09T01:41:54.787Z,1003.63
2017-06-09T01:42:56.037Z,1003.62
2017-06-09T01:43:57.297Z,1003.57
2017-06-09T01:44:58.565Z,1003.55
2017-06-09T01:45:59.797Z,1003.54
2017-06-09T01:47:01.073Z,1003.56
2017-06-09T01:48:02.299Z,1003.54
2017-06-09T01:49:03.614Z,1003.49
2017-06-09T01:50:04.861Z,1003.5
2017-06-09T01:51:06.236Z,1003.49
2017-06-09T01:52:07.525Z,1003.52
2017-06-09T01:53:08.797Z,1003.51
2017-06-09T01:54:10.029Z,1003.54
2017-06-09T01:55:11.295Z,1003.53
2017-06-09T01:56:12.614Z,1003.52
2017-06-09T01:57:13.908Z,1003.53
2017-06-09T01:58:15.156Z,1003.51
2017-06-09T01:59:16.383Z,1003.49
2017-06-09T02:00:17.728Z,1003.49
2017-06-09T02:01:18.935Z,1003.49
2017-06-09T02:02:20.169Z,1003.49
2017-06-09T02:03:21.417Z,1003.46
2017-06-09T02:04:22.704Z,1003.46
2017-06-09T02:05:23.958Z,1003.45
2017-06-09T02:06:25.233Z,1003.44
2017-06-09T02:07:26.465Z,1003.44
2017-06-09T02:08:27.712Z,1003.42
2017-06-09T02:09:28.954Z,1003.4
2017-06-09T02:10:30.224Z,1003.38
2017-06-09T02:11:31.449Z,1003.38
2017-06-09T02:12:32.691Z,1003.4
2017-06-09T02:13:33.943Z,1003.43
2017-06-09T02:14:35.217Z,1003.41
2017-06-09T02:15:36.459Z,1003.43
2017-06-09T02:16:37.806Z,1003.4
2017-06-09T02:17:39.057Z,1003.42
2017-06-09T02:18:40.302Z,1003.41
2017-06-09T02:19:41.625Z,1003.34
2017-06-09T02:20:42.873Z,1003.32
2017-06-09T02:21:44.123Z,1003.35
2017-06-09T02:22:45.392Z,1003.36
2017-06-09T02:23:46.646Z,1003.3
2017-06-09T02:24:47.878Z,1003.31
2017-06-09T02:25:49.107Z,1003.27
2017-06-09T02:26:50.356Z,1003.3
2017-06-09T02:27:51.629Z,1003.29
2017-06-09T02:28:52.937Z,1003.26
2017-06-09T02:29:54.204Z,1003.32
2017-06-09T02:30:55.478Z,1003.29
2017-06-09T02:31:56.717Z,1003.27
2017-06-09T02:32:57.961Z,1003.29
2017-06-09T02:33:59.199Z,1003.3
2017-06-09T02:35:00.454Z,1003.32
2017-06-09T02:36:01.699Z,1003.3
2017-06-09T02:37:02.938Z,1003.31
2017-06-09T02:38:04.188Z,1003.24
2017-06-09T02:39:05.444Z,1003.26
2017-06-09T02:40:06.692Z,1003.25
2017-06-09T02:41:07.929Z,1003.23
2017-06-09T02:42:09.198Z,1003.2
2017-06-09T02:43:10.609Z,1003.2
2017-06-09T02:44:11.981Z,1003.18
2017-06-09T02:45:13.237Z,1003.18
2017-06-09T02:46:14.481Z,1003.17
2017-06-09T02:47:15.745Z,1003.18
2017-06-09T02:48:17.098Z,1003.11
2017-06-09T02:49:18.345Z,1003.14
2017-06-09T02:50:19.698Z,1003.16
2017-06-09T02:51:20.933Z,1003.15
2017-06-09T02:52:22.190Z,1003.09
2017-06-09T02:53:23.421Z,1003.08
2017-06-09T02:54:24.672Z,1003.06
2017-06-09T02:55:25.915Z,1002.99
2017-06-09T02:56:27.208Z,1003.01
2017-06-09T02:57:28.469Z,1002.96
2017-06-09T02:58:29.706Z,1002.95
2017-06-09T02:59:30.947Z,1003.01
2017-06-09T03:00:32.228Z,1003.02
2017-06-09T03:01:33.467Z,1003.02
2017-06-09T03:02:34.700Z,1003.05
2017-06-09T03:03:35.953Z,1003.05
2017-06-09T03:04:37.193Z,1003.03
2017-06-09T03:05:38.506Z,1003.04
2017-06-09T03:06:39.743Z,1003.05
2017-06-09T03:07:40.985Z,1003.04
2017-06-09T03:08:42.280Z,1003.05
2017-06-09T03:09:43.530Z,1003.02
2017-06-09T03:10:44.780Z,1002.99
2017-06-09T03:11:46.023Z,1003.02
2017-06-09T03:12:47.275Z,1003
2017-06-09T03:13:48.525Z,1002.99
2017-06-09T03:14:49.896Z,1002.96
2017-06-09T03:15:51.153Z,1002.96
2017-06-09T03:16:52.441Z,1002.97
2017-06-09T03:17:53.667Z,1002.94
2017-06-09T03:18:54.921Z,1002.98
2017-06-09T03:19:56.162Z,1002.95
2017-06-09T03:20:57.427Z,1002.94
2017-06-09T03:21:58.650Z,1002.94
2017-06-09T03:22:59.906Z,1002.95
2017-06-09T03:24:01.146Z,1002.93
2017-06-09T03:25:02.395Z,1002.91
2017-06-09T03:26:03.648Z,1002.92
2017-06-09T03:27:04.913Z,1002.92
2017-06-09T03:28:06.148Z,1002.92
2017-06-09T03:29:07.385Z,1002.93
2017-06-09T03:30:08.636Z,1002.88
2017-06-09T03:31:09.859Z,1002.89
2017-06-09T03:32:11.115Z,1002.9
2017-06-09T03:33:12.347Z,1002.88
2017-06-09T03:34:13.724Z,1002.85
2017-06-09T03:35:14.982Z,1002.84
2017-06-09T03:36:16.236Z,1002.8
2017-06-09T03:37:17.464Z,1002.77
2017-06-09T03:38:18.704Z,1002.75
2017-06-09T03:39:20.025Z,1002.76
2017-06-09T03:40:21.293Z,1002.72
2017-06-09T03:41:22.539Z,1002.76
2017-06-09T03:42:23.821Z,1002.72
2017-06-09T03:43:25.119Z,1002.69
2017-06-09T03:44:26.338Z,1002.72
2017-06-09T03:45:27.591Z,1002.7
2017-06-09T03:46:28.847Z,1002.69
2017-06-09T03:47:30.103Z,1002.71
2017-06-09T03:48:31.372Z,1002.73
2017-06-09T03:49:32.603Z,1002.75
2017-06-09T03:50:33.888Z,1002.75
2017-06-09T03:51:35.086Z,1002.73
2017-06-09T03:52:36.354Z,1002.77
2017-06-09T03:53:37.643Z,1002.77
2017-06-09T03:54:38.901Z,1002.78
2017-06-09T03:55:40.139Z,1002.79
2017-06-09T03:56:41.400Z,1002.77
2017-06-09T03:57:42.801Z,1002.78
2017-06-09T03:58:44.199Z,1002.73
2017-06-09T03:59:45.453Z,1002.7
2017-06-09T04:00:46.705Z,1002.71
2017-06-09T04:01:47.960Z,1002.67
2017-06-09T04:02:49.211Z,1002.65
2017-06-09T04:03:50.507Z,1002.64
2017-06-09T04:04:51.749Z,1002.63
2017-06-09T04:05:53.000Z,1002.66
2017-06-09T04:06:54.241Z,1002.64
2017-06-09T04:07:55.481Z,1002.67
2017-06-09T04:08:56.725Z,1002.64
2017-06-09T04:09:57.970Z,1002.62
2017-06-09T04:10:59.574Z,1002.63
2017-06-09T04:12:00.720Z,1002.62
2017-06-09T04:13:01.971Z,1002.61
2017-06-09T04:14:03.196Z,1002.59
2017-06-09T04:15:04.601Z,1002.55
2017-06-09T04:16:05.871Z,1002.54
2017-06-09T04:17:07.193Z,1002.49
2017-06-09T04:18:08.431Z,1002.48
2017-06-09T04:19:09.661Z,1002.44
2017-06-09T04:20:10.902Z,1002.43
2017-06-09T04:21:12.151Z,1002.45
2017-06-09T04:22:13.446Z,1002.43
2017-06-09T04:23:14.717Z,1002.43
2017-06-09T04:24:16.010Z,1002.49
2017-06-09T04:25:17.292Z,1002.49
2017-06-09T04:26:18.531Z,1002.49
2017-06-09T04:27:19.865Z,1002.5
2017-06-09T04:28:21.128Z,1002.5
2017-06-09T04:29:22.360Z,1002.48
2017-06-09T04:30:23.606Z,1002.47
2017-06-09T04:31:24.861Z,1002.47
2017-06-09T04:32:26.121Z,1002.5
2017-06-09T04:33:27.365Z,1002.48
2017-06-09T04:34:28.616Z,1002.53
2017-06-09T04:35:29.988Z,1002.47
2017-06-09T04:36:31.215Z,1002.5
2017-06-09T04:37:32.453Z,1002.52
2017-06-09T04:38:33.704Z,1002.51
2017-06-09T04:39:34.965Z,1002.48
2017-06-09T04:40:36.295Z,1002.44
2017-06-09T04:41:37.597Z,1002.46
2017-06-09T04:42:38.855Z,1002.47
2017-06-09T04:43:40.086Z,1002.47
2017-06-09T04:44:41.345Z,1002.48
2017-06-09T04:45:42.626Z,1002.47
2017-06-09T04:46:43.921Z,1002.47
2017-06-09T04:47:45.204Z,1002.5
2017-06-09T04:48:46.423Z,1002.41
2017-06-09T04:49:47.702Z,1002.41
2017-06-09T04:50:48.951Z,1002.41
2017-06-09T04:51:50.211Z,1002.36
2017-06-09T04:52:51.459Z,1002.43
2017-06-09T04:53:52.784Z,1002.42
2017-06-09T04:54:54.022Z,1002.43
2017-06-09T04:55:55.296Z,1002.41
2017-06-09T04:56:56.527Z,1002.46
2017-06-09T04:57:57.784Z,1002.39
2017-06-09T04:58:59.082Z,1002.4
2017-06-09T05:00:00.416Z,1002.39
2017-06-09T05:01:01.805Z,1002.37
2017-06-09T05:02:03.046Z,1002.37
2017-06-09T05:03:04.289Z,1002.38
2017-06-09T05:04:05.580Z,1002.38
2017-06-09T05:05:06.803Z,1002.44
2017-06-09T05:06:08.104Z,1002.44
2017-06-09T05:07:09.386Z,1002.4
2017-06-09T05:08:10.598Z,1002.43
2017-06-09T05:09:11.859Z,1002.39
2017-06-09T05:10:13.113Z,1002.36
2017-06-09T05:11:14.391Z,1002.37
2017-06-09T05:12:15.624Z,1002.37
2017-06-09T05:13:16.878Z,1002.36
2017-06-09T05:14:18.124Z,1002.36
2017-06-09T05:15:19.368Z,1002.36
2017-06-09T05:16:20.610Z,1002.43
2017-06-09T05:17:21.951Z,1002.41
2017-06-09T05:18:23.199Z,1002.45
2017-06-09T05:19:24.431Z,1002.45
2017-06-09T05:20:25.711Z,1002.53
2017-06-09T05:21:26.956Z,1002.51
2017-06-09T05:22:28.181Z,1002.52
2017-06-09T05:23:29.486Z,1002.54
2017-06-09T05:24:30.754Z,1002.56
2017-06-09T05:25:32.122Z,1002.55
2017-06-09T05:26:33.406Z,1002.57
2017-06-09T05:27:34.636Z,1002.58
2017-06-09T05:28:35.887Z,1002.56
2017-06-09T05:29:37.144Z,1002.54
2017-06-09T05:30:38.386Z,1002.52
2017-06-09T05:31:39.688Z,1002.5
2017-06-09T05:32:40.948Z,1002.49
2017-06-09T05:33:42.198Z,1002.46
2017-06-09T05:34:43.447Z,1002.44
2017-06-09T05:35:44.777Z,1002.45
2017-06-09T05:36:46.081Z,1002.42
2017-06-09T05:37:47.384Z,1002.43
2017-06-09T05:38:48.636Z,1002.38
2017-06-09T05:39:49.888Z,1002.38
2017-06-09T05:40:51.138Z,1002.42
2017-06-09T05:41:52.393Z,1002.36
2017-06-09T05:42:53.720Z,1002.35
2017-06-09T05:43:54.946Z,1002.37
2017-06-09T05:44:56.211Z,1002.39
2017-06-09T05:45:57.460Z,1002.42
2017-06-09T05:46:58.707Z,1002.4
2017-06-09T05:47:59.966Z,1002.39
2017-06-09T05:49:01.221Z,1002.42
2017-06-09T05:50:02.512Z,1002.5
2017-06-09T05:51:03.831Z,1002.46
2017-06-09T05:52:05.096Z,1002.48
2017-06-09T05:53:06.342Z,1002.48
2017-06-09T05:54:07.609Z,1002.43
2017-06-09T05:55:08.894Z,1002.4
2017-06-09T05:56:10.144Z,1002.37
2017-06-09T05:57:11.392Z,1002.36
2017-06-09T05:58:12.639Z,1002.33
2017-06-09T05:59:13.900Z,1002.33
2017-06-09T06:00:15.158Z,1002.3
2017-06-09T06:01:16.407Z,1002.33
2017-06-09T06:02:17.754Z,1002.29
2017-06-09T06:03:19.063Z,1002.4
2017-06-09T06:04:20.275Z,1002.38
2017-06-09T06:05:21.516Z,1002.37
2017-06-09T06:06:22.781Z,1002.4
2017-06-09T06:07:24.152Z,1002.46
2017-06-09T06:08:25.429Z,1002.45
2017-06-09T06:09:26.693Z,1002.49
2017-06-09T06:10:27.991Z,1002.43
2017-06-09T06:11:29.234Z,1002.42
2017-06-09T06:12:30.492Z,1002.45
2017-06-09T06:13:31.865Z,1002.49
2017-06-09T06:14:33.217Z,1002.51
2017-06-09T06:15:34.468Z,1002.55
2017-06-09T06:16:35.890Z,1002.5
2017-06-09T06:17:37.168Z,1002.51
2017-06-09T06:18:38.485Z,1002.52
2017-06-09T06:19:39.857Z,1002.51
2017-06-09T06:20:41.111Z,1002.5
2017-06-09T06:21:42.395Z,1002.46
2017-06-09T06:22:43.634Z,1002.47
2017-06-09T06:23:44.890Z,1002.5
2017-06-09T06:24:46.155Z,1002.53
2017-06-09T06:25:47.506Z,1002.48
2017-06-09T06:26:48.631Z,1002.48
2017-06-09T06:27:50.010Z,1002.46
2017-06-09T06:28:51.218Z,1002.5
2017-06-09T06:29:52.609Z,1002.48
2017-06-09T06:30:53.848Z,1002.49
2017-06-09T06:31:55.103Z,1002.55
2017-06-09T06:32:56.340Z,1002.54
2017-06-09T06:33:57.619Z,1002.57
2017-06-09T06:34:58.870Z,1002.56
2017-06-09T06:36:00.118Z,1002.59
2017-06-09T06:37:01.370Z,1002.64
2017-06-09T06:38:02.667Z,1002.66
2017-06-09T06:39:03.914Z,1002.63
2017-06-09T06:40:05.161Z,1002.64
2017-06-09T06:41:06.402Z,1002.68
2017-06-09T06:42:07.659Z,1002.74
2017-06-09T06:43:08.930Z,1002.66
2017-06-09T06:44:10.195Z,1002.7
2017-06-09T06:45:11.473Z,1002.63
2017-06-09T06:46:12.723Z,1002.68
2017-06-09T06:47:13.980Z,1002.61
2017-06-09T06:48:15.243Z,1002.57
2017-06-09T06:49:16.480Z,1002.54
2017-06-09T06:50:17.769Z,1002.52
2017-06-09T06:51:19.025Z,1002.5
2017-06-09T06:52:20.283Z,1002.51
2017-06-09T06:53:21.536Z,1002.48
2017-06-09T06:54:22.869Z,1002.48
2017-06-09T06:55:24.190Z,1002.47
2017-06-09T06:56:25.553Z,1002.47
2017-06-09T06:57:26.684Z,1002.45
2017-06-09T06:58:27.939Z,1002.42
2017-06-09T06:59:29.164Z,1002.39
2017-06-09T07:00:30.405Z,1002.38
2017-06-09T07:01:31.655Z,1002.39
2017-06-09T07:02:32.918Z,1002.35
2017-06-09T07:03:34.196Z,1002.35
2017-06-09T07:04:35.452Z,1002.36
2017-06-09T07:05:36.694Z,1002.4
2017-06-09T07:06:37.952Z,1002.35
2017-06-09T07:07:39.251Z,1002.4
2017-06-09T07:08:40.490Z,1002.36
2017-06-09T07:09:41.784Z,1002.42
2017-06-09T07:10:43.040Z,1002.39
2017-06-09T07:11:44.277Z,1002.4
2017-06-09T07:12:45.524Z,1002.42
2017-06-09T07:13:47.002Z,1002.44
2017-06-09T07:14:48.261Z,1002.47
2017-06-09T07:15:49.495Z,1002.5
2017-06-09T07:16:50.750Z,1002.52
2017-06-09T07:17:51.989Z,1002.53
2017-06-09T07:18:53.240Z,1002.5
2017-06-09T07:19:54.683Z,1002.49
2017-06-09T07:20:56.003Z,1002.45
2017-06-09T07:21:58.215Z,1002.46
2017-06-09T07:22:59.482Z,1002.43
2017-06-09T07:24:00.726Z,1002.42
2017-06-09T07:25:01.984Z,1002.4
2017-06-09T07:26:03.219Z,1002.49
2017-06-09T07:27:04.491Z,1002.45
2017-06-09T07:28:05.746Z,1002.47
2017-06-09T07:29:07.000Z,1002.4
2017-06-09T07:30:08.303Z,1002.33
2017-06-09T07:31:09.574Z,1002.3
2017-06-09T07:32:10.825Z,1002.28
2017-06-09T07:33:12.078Z,1002.17
2017-06-09T07:34:13.349Z,1002.13
2017-06-09T07:35:14.584Z,1002.18
2017-06-09T07:36:15.885Z,1002.16
2017-06-09T07:37:17.116Z,1002.21
2017-06-09T07:38:18.433Z,1002.2
2017-06-09T07:39:19.810Z,1002.18
2017-06-09T07:40:21.059Z,1002.14
2017-06-09T07:41:22.438Z,1002.14
2017-06-09T07:42:23.687Z,1002.13
2017-06-09T07:43:24.935Z,1002.09
2017-06-09T07:44:26.194Z,1002.01
2017-06-09T07:45:27.446Z,1001.99
2017-06-09T07:46:28.711Z,1001.94
2017-06-09T07:47:30.062Z,1001.84
2017-06-09T07:48:31.475Z,1001.79
2017-06-09T07:49:32.681Z,1001.75
2017-06-09T07:50:33.938Z,1001.78
2017-06-09T07:51:35.205Z,1001.76
2017-06-09T07:52:36.441Z,1001.77
2017-06-09T07:53:37.734Z,1001.74
2017-06-09T07:54:39.080Z,1001.74
2017-06-09T07:55:40.461Z,1001.73
2017-06-09T07:56:41.687Z,1001.71
2017-06-09T07:57:42.943Z,1001.71
2017-06-09T07:58:44.193Z,1001.69
2017-06-09T07:59:45.473Z,1001.69
2017-06-09T08:00:46.735Z,1001.66
2017-06-09T08:01:48.083Z,1001.73
2017-06-09T08:02:49.348Z,1001.76
2017-06-09T08:03:50.675Z,1001.78
2017-06-09T08:04:51.974Z,1001.77
2017-06-09T08:05:53.186Z,1001.77
2017-06-09T08:06:54.466Z,1001.79
2017-06-09T08:07:55.741Z,1001.85
2017-06-09T08:08:57.001Z,1001.93
2017-06-09T08:09:58.262Z,1001.97
2017-06-09T08:10:59.498Z,1002.06
2017-06-09T08:12:00.841Z,1002.02
2017-06-09T08:13:02.114Z,1002.04
2017-06-09T08:14:03.363Z,1002.07
2017-06-09T08:15:04.623Z,1002.13
2017-06-09T08:16:05.880Z,1002.16
2017-06-09T08:17:07.139Z,1002.12
2017-06-09T08:18:08.381Z,1002.14
2017-06-09T08:19:09.642Z,1002.13
2017-06-09T08:20:10.893Z,1002.18
2017-06-09T08:21:12.143Z,1002.22
2017-06-09T08:22:13.414Z,1002.21
2017-06-09T08:23:14.649Z,1002.18
2017-06-09T08:24:15.956Z,1002.2
2017-06-09T08:25:17.270Z,1002.22
2017-06-09T08:26:18.519Z,1002.29
2017-06-09T08:27:19.774Z,1002.3
2017-06-09T08:28:21.033Z,1002.32
2017-06-09T08:29:22.325Z,1002.28
2017-06-09T08:30:23.691Z,1002.32
2017-06-09T08:31:24.950Z,1002.34
2017-06-09T08:32:26.201Z,1002.34
2017-06-09T08:33:27.459Z,1002.43
2017-06-09T08:34:28.818Z,1002.44
2017-06-09T08:35:30.079Z,1002.39
2017-06-09T08:36:31.327Z,1002.38
2017-06-09T08:37:32.578Z,1002.41
2017-06-09T08:38:33.836Z,1002.43
2017-06-09T08:39:35.100Z,1002.49
2017-06-09T08:40:36.364Z,1002.38
2017-06-09T08:41:37.649Z,1002.38
2017-06-09T08:42:38.906Z,1002.41
2017-06-09T08:43:40.196Z,1002.42
2017-06-09T08:44:41.445Z,1002.41
2017-06-09T08:45:42.707Z,1002.43
2017-06-09T08:46:43.957Z,1002.49
2017-06-09T08:47:45.213Z,1002.54
2017-06-09T08:48:46.528Z,1002.62
2017-06-09T08:49:47.854Z,1002.6
2017-06-09T08:50:49.082Z,1002.64
2017-06-09T08:51:50.332Z,1002.69
2017-06-09T08:52:51.573Z,1002.72
2017-06-09T08:53:52.838Z,1002.69
2017-06-09T08:54:54.252Z,1002.64
2017-06-09T08:55:55.477Z,1002.63
2017-06-09T08:56:56.732Z,1002.57
2017-06-09T08:57:57.993Z,1002.57
2017-06-09T08:58:59.232Z,1002.53
2017-06-09T09:00:00.624Z,1002.54
2017-06-09T09:01:01.870Z,1002.54
2017-06-09T09:02:03.158Z,1002.51
2017-06-09T09:03:04.403Z,1002.53
2017-06-09T09:04:05.659Z,1002.56
2017-06-09T09:05:06.905Z,1002.58
2017-06-09T09:06:08.161Z,1002.59
2017-06-09T09:07:09.467Z,1002.63
2017-06-09T09:08:10.696Z,1002.67
2017-06-09T09:09:11.955Z,1002.66
2017-06-09T09:10:13.215Z,1002.64
2017-06-09T09:11:14.527Z,1002.64
2017-06-09T09:12:15.790Z,1002.67
2017-06-09T09:13:17.033Z,1002.68
2017-06-09T09:14:18.416Z,1002.69
2017-06-09T09:15:19.699Z,1002.72
2017-06-09T09:16:20.953Z,1002.7
2017-06-09T09:17:22.185Z,1002.65
2017-06-09T09:18:23.439Z,1002.66
2017-06-09T09:19:24.724Z,1002.68
2017-06-09T09:20:25.987Z,1002.67
2017-06-09T09:21:27.235Z,1002.66
2017-06-09T09:22:28.486Z,1002.63
2017-06-09T09:23:29.744Z,1002.63
2017-06-09T09:24:31.048Z,1002.67
2017-06-09T09:25:32.318Z,1002.73
2017-06-09T09:26:33.562Z,1002.73
2017-06-09T09:27:34.810Z,1002.7
2017-06-09T09:28:36.060Z,1002.71
2017-06-09T09:29:37.319Z,1002.73
2017-06-09T09:30:38.607Z,1002.72
2017-06-09T09:31:39.887Z,1002.72
2017-06-09T09:32:41.106Z,1002.7
2017-06-09T09:33:42.372Z,1002.69
2017-06-09T09:34:43.619Z,1002.64
2017-06-09T09:35:44.893Z,1002.62
2017-06-09T09:36:46.147Z,1002.64
2017-06-09T09:37:47.396Z,1002.67
2017-06-09T09:38:48.665Z,1002.7
2017-06-09T09:39:49.906Z,1002.67
2017-06-09T09:40:51.168Z,1002.69
2017-06-09T09:41:52.416Z,1002.7
2017-06-09T09:42:53.659Z,1002.74
2017-06-09T09:43:55.012Z,1002.75
2017-06-09T09:44:56.324Z,1002.78
2017-06-09T09:45:57.670Z,1002.83
2017-06-09T09:46:58.913Z,1002.84
2017-06-09T09:48:00.172Z,1002.82
2017-06-09T09:49:01.449Z,1002.89
2017-06-09T09:50:02.721Z,1002.94
2017-06-09T09:51:03.939Z,1002.92
2017-06-09T09:52:05.190Z,1002.96
2017-06-09T09:53:06.455Z,1002.93
2017-06-09T09:54:07.696Z,1003
2017-06-09T09:55:08.955Z,1003.04
2017-06-09T09:56:10.276Z,1003.11
2017-06-09T09:57:11.539Z,1003.12
2017-06-09T09:58:12.803Z,1003.15
2017-06-09T09:59:14.079Z,1003.13
2017-06-09T10:00:15.347Z,1003.15
2017-06-09T10:01:16.625Z,1003.17
2017-06-09T10:02:17.960Z,1003.16
2017-06-09T10:03:19.171Z,1003.15
2017-06-09T10:04:20.440Z,1003.07
2017-06-09T10:05:21.691Z,1002.98
2017-06-09T10:06:23.033Z,1002.83
2017-06-09T10:07:24.346Z,1002.72
2017-06-09T10:08:25.624Z,1002.65
2017-06-09T10:09:26.853Z,1002.6
2017-06-09T10:10:28.113Z,1002.6
2017-06-09T10:11:29.382Z,1002.53
2017-06-09T10:12:30.641Z,1002.5
2017-06-09T10:13:31.917Z,1002.53
2017-06-09T10:14:33.179Z,1002.52
2017-06-09T10:15:34.434Z,1002.61
2017-06-09T10:16:35.775Z,1002.72
2017-06-09T10:17:37.018Z,1002.79
2017-06-09T10:18:38.291Z,1002.87
2017-06-09T10:19:39.556Z,1002.99
2017-06-09T10:20:40.800Z,1003.03
2017-06-09T10:21:42.222Z,1003.2
2017-06-09T10:22:43.491Z,1003.26
2017-06-09T10:23:44.741Z,1003.31
2017-06-09T10:24:45.976Z,1003.29
2017-06-09T10:25:47.230Z,1003.36
2017-06-09T10:26:48.547Z,1003.39
2017-06-09T10:27:49.869Z,1003.41
2017-06-09T10:28:51.116Z,1003.39
2017-06-09T10:29:52.366Z,1003.47
2017-06-09T10:30:53.675Z,1003.56
2017-06-09T10:31:55.004Z,1003.6
2017-06-09T10:32:56.242Z,1003.66
2017-06-09T10:33:57.490Z,1003.73
2017-06-09T10:34:58.743Z,1003.72
2017-06-09T10:35:59.983Z,1003.73
2017-06-09T10:37:01.227Z,1003.72
2017-06-09T10:38:02.556Z,1003.69
2017-06-09T10:39:03.867Z,1003.66
2017-06-09T10:40:05.116Z,1003.63
2017-06-09T10:41:06.361Z,1003.66
2017-06-09T10:42:07.617Z,1003.67
2017-06-09T10:43:08.977Z,1003.66
2017-06-09T10:44:10.217Z,1003.67
2017-06-09T10:45:11.462Z,1003.65
2017-06-09T10:46:12.681Z,1003.63
2017-06-09T10:47:13.944Z,1003.6
2017-06-09T10:48:15.183Z,1003.61
2017-06-09T10:49:16.426Z,1003.61
2017-06-09T10:50:17.717Z,1003.68
2017-06-09T10:51:18.942Z,1003.76
2017-06-09T10:52:20.211Z,1003.8
2017-06-09T10:53:21.484Z,1003.83
2017-06-09T10:54:22.743Z,1003.9
2017-06-09T10:55:23.979Z,1003.93
2017-06-09T10:56:25.221Z,1004.02
2017-06-09T10:57:26.562Z,1004.05
2017-06-09T10:58:27.814Z,1004.06
2017-06-09T10:59:29.054Z,1004.08
2017-06-09T11:00:30.309Z,1004.06
2017-06-09T11:01:31.557Z,1004.02
2017-06-09T11:02:32.855Z,1004.1
2017-06-09T11:03:34.258Z,1004.07
2017-06-09T11:04:35.537Z,1004.09
2017-06-09T11:05:36.781Z,1004.15
2017-06-09T11:06:38.032Z,1004.18
2017-06-09T11:07:39.284Z,1004.16
2017-06-09T11:08:40.679Z,1004.16
2017-06-09T11:09:41.956Z,1004.22
2017-06-09T11:10:43.207Z,1004.21
2017-06-09T11:11:44.447Z,1004.17
2017-06-09T11:12:45.717Z,1004.19
2017-06-09T11:13:46.942Z,1004.23
2017-06-09T11:14:48.197Z,1004.04
2017-06-09T11:15:49.474Z,1004.14
2017-06-09T11:16:50.707Z,1004.15
2017-06-09T11:17:52.018Z,1004.12
2017-06-09T11:18:53.253Z,1004.12
2017-06-09T11:19:54.522Z,1004.16
2017-06-09T11:20:55.774Z,1004.18
2017-06-09T11:21:57.014Z,1004.2
2017-06-09T11:22:58.359Z,1004.2
2017-06-09T11:23:59.694Z,1004.18
2017-06-09T11:25:00.905Z,1004.21
2017-06-09T11:26:02.144Z,1004.21
2017-06-09T11:27:03.460Z,1004.24
2017-06-09T11:28:04.729Z,1004.26
2017-06-09T11:29:05.950Z,1004.27
2017-06-09T11:30:07.203Z,1004.28
2017-06-09T11:31:08.450Z,1004.31
2017-06-09T11:32:09.735Z,1004.3
2017-06-09T11:33:11.050Z,1004.32
2017-06-09T11:34:12.317Z,1004.32
2017-06-09T11:35:13.586Z,1004.33
2017-06-09T11:36:14.825Z,1004.33
2017-06-09T11:37:16.074Z,1004.37
2017-06-09T11:38:17.324Z,1004.34
2017-06-09T11:39:18.653Z,1004.42
2017-06-09T11:40:19.911Z,1004.42
2017-06-09T11:41:21.150Z,1004.4
2017-06-09T11:42:22.411Z,1004.42
2017-06-09T11:43:23.678Z,1004.43
2017-06-09T11:44:24.923Z,1004.41
2017-06-09T11:45:26.238Z,1004.42
2017-06-09T11:46:27.509Z,1004.45
2017-06-09T11:47:28.820Z,1004.48
2017-06-09T11:48:30.107Z,1004.45
2017-06-09T11:49:31.346Z,1004.51
2017-06-09T11:50:32.595Z,1004.51
2017-06-09T11:51:33.840Z,1004.52
2017-06-09T11:52:35.091Z,1004.52
2017-06-09T11:53:36.405Z,1004.46
2017-06-09T11:54:37.637Z,1004.46
2017-06-09T11:55:38.877Z,1004.51
2017-06-09T11:56:40.117Z,1004.56
2017-06-09T11:57:41.383Z,1004.52
2017-06-09T11:58:42.677Z,1004.57
2017-06-09T11:59:43.940Z,1004.5
2017-06-09T12:00:45.197Z,1004.55
2017-06-09T12:01:46.457Z,1004.57
2017-06-09T12:02:47.695Z,1004.56
2017-06-09T12:03:48.994Z,1004.56
2017-06-09T12:04:50.275Z,1004.55
2017-06-09T12:05:51.661Z,1004.62
2017-06-09T12:06:52.884Z,1004.57
2017-06-09T12:07:54.140Z,1004.56
2017-06-09T12:08:55.373Z,1004.59
2017-06-09T12:09:56.643Z,1004.56
2017-06-09T12:10:57.977Z,1004.55
2017-06-09T12:11:59.142Z,1004.55
2017-06-09T12:13:00.500Z,1004.5
2017-06-09T12:14:01.751Z,1004.53
2017-06-09T12:15:03.022Z,1004.51
2017-06-09T12:16:04.289Z,1004.59
2017-06-09T12:17:05.522Z,1004.59
2017-06-09T12:18:06.779Z,1004.57
2017-06-09T12:19:08.106Z,1004.54
2017-06-09T12:20:09.419Z,1004.62
2017-06-09T12:21:10.668Z,1004.6
2017-06-09T12:22:11.905Z,1004.64
2017-06-09T12:23:13.156Z,1004.77
2017-06-09T12:24:14.431Z,1004.75